Accueil
METAR-TAF:

METAR-TAF

Aéroports :

Aviano Air Base

Aviano, Italie

latitude: 46-02N, longitude: 012-36E, altitude: 128 m

Observation

Le bulletin a été fait il y a 47 minutes, à 04:55 UTC
Vent 5 kt de nord/nord-est
Température 14°C
Humidité 82%
Pression 1026 hPa
Visibilité 10 km ou plus
Quelques nuages à une hauteur de 7000 ft

METAR: LIPA 250455Z 02005KT 9999 FEW070 14/11 Q1026 RMK FEW VIS MIN 9999 WIND THR05 /////KT WIND THR23 /////KT A3033 BLU

Heure: 07:42 (05:42 UTC)

Prévision

Le bulletin a été fait il y a 42 minutes, à 05:00 UTC
Prévision valable du 25 à 06 UTC au 25 à 15 UTC
Vent 5 kt de nord
Visibilité 10 km ou plus
Quelques nuages à une hauteur de 7000 ft

TAF: LIPA 250500Z 2506/2515 01005KT 9999 FEW070

Observations et prévisions météorologiques de plus de 4000 aéroports (messages METAR et TAF).

Les stations disponibles sont représentées par des disques jaunes et rouges sur la carte.

Passer la souris dessus pour voir le nom de la station.

Cliquer dessus pour voir les observations et prévisions météorologiques.

Pour changer de carte: cliquez sur les boutons verts avec une croix noire pour zoomer, sur le bouton vert avec un tiret pour effectuer un zoom arrière, ou sur les flèches vertes pour les cartes adjacentes.


METAR-TAF: